Jj Callis — WDC9890 — position and weather

sailwx.info

Track history (hours):
 
Tides and Currents Weather Stations Pressure Air Temp Water Temp Dewpoint Dewpoint Depression Visibility Wind Speed Wind Dir Waves Ship Positions

Jj Callis

Owner: Department of Homeland Security Plum Island Facility, Greenport, NY. More information available from US FCC via Universal Licensing System and Coast Guard Vessel Documentation Center.

Last reported at 2018-Jun-10 18:14 UTC. Time now 2018-Jun-19 16:26 UTC.
Position N 41°13' W 072°17'.
Warning: this ship's position is 8 days out of date.

Type: Passenger vessel. MMSI: 367107990.

Date/timePositionNaut miles runAvg speedWind from/ knotsBaromVisibWave heightAir tempDewpointWater temp
2018-Jun-10 18:14N 41°13' W 072°17'416.8
2018-Jun-10 18:00N 41°16' W 072°20'0 0.1
2018-Jun-10 17:30N 41°16' W 072°20'9 2.0
2018-Jun-10 13:20N 41°10' W 072°12'721.2
2018-Jun-10 13:00N 41°15' W 072°20'2 4.2
2018-Jun-10 12:30N 41°17' W 072°21'612.0
2018-Jun-10 12:00N 41°12' W 072°16'2 0.1
2018-Jun-09 22:08N 41°14' W 072°18'321.2
2018-Jun-09 22:00N 41°15' W 072°20'2 3.3
2018-Jun-09 21:30N 41°14' W 072°19'6 3.1
2018-Jun-09 19:30N 41°10' W 072°12'5 0.8
2018-Jun-09 13:03N 41°14' W 072°18'220.7
2018-Jun-09 12:58N 41°15' W 072°19'2 5.1
2018-Jun-09 12:30N 41°17' W 072°21'4 0.3
2018-Jun-08 23:37N 41°14' W 072°18'222.5
2018-Jun-08 23:31N 41°16' W 072°20'2 3.3
2018-Jun-08 23:00N 41°15' W 072°19'2 0.9
2018-Jun-08 21:10N 41°13' W 072°17'320.5
2018-Jun-08 21:00N 41°16' W 072°20'3 6.1
2018-Jun-08 20:30N 41°14' W 072°18'2 2.6
2018-Jun-08 19:45N 41°12' W 072°16'519.9
2018-Jun-08 19:30N 41°16' W 072°20'3 6.5
2018-Jun-08 19:00N 41°13' W 072°18'5 0.3
2018-Jun-08 03:10N 41°10' W 072°12'5 1.5
2018-Jun-07 23:35N 41°14' W 072°18'222.6
2018-Jun-07 23:29N 41°15' W 072°20'1 1.9
2018-Jun-07 23:00N 41°14' W 072°19'  
2018-Jun-03 18:03N 41°14' W 072°18'220.0
2018-Jun-03 17:57N 41°15' W 072°20'2 4.0
2018-Jun-03 17:30N 41°17' W 072°21'4 1.0
2018-Jun-03 13:03N 41°13' W 072°17'121.8
2018-Jun-03 13:00N 41°14' W 072°19'3 6.9
2018-Jun-03 12:30N 41°17' W 072°21'510.0
2018-Jun-03 12:00N 41°13' W 072°17'2 0.1
2018-Jun-02 22:07N 41°14' W 072°18'221.1
2018-Jun-02 22:00N 41°16' W 072°21'3 5.2
2018-Jun-02 21:31N 41°14' W 072°18'1 0.4
2018-Jun-02 17:50N 41°13' W 072°17'515.7
2018-Jun-02 17:30N 41°17' W 072°21'4 0.8
2018-Jun-02 13:02N 41°14' W 072°18'120.5
2018-Jun-02 13:00N 41°14' W 072°18'3 6.4
2018-Jun-02 12:30N 41°17' W 072°21'4 0.3
2018-Jun-01 23:40N 41°14' W 072°18'320.9
2018-Jun-01 23:30N 41°16' W 072°21'3 5.6
2018-Jun-01 23:01N 41°14' W 072°18'1 0.5
2018-Jun-01 21:25N 41°13' W 072°19'4 9.5
2018-Jun-01 21:00N 41°17' W 072°21'4 3.2
2018-Jun-01 19:43N 41°14' W 072°17'417.4
2018-Jun-01 19:30N 41°16' W 072°20'5 0.2
2018-May-31 23:39N 41°13' W 072°17'322.8
2018-May-31 23:31N 41°15' W 072°20'2 4.4
2018-May-31 23:00N 41°14' W 072°18'2 0.6
2018-May-31 19:27N 41°15' W 072°20'2 4.0
2018-May-31 19:00N 41°14' W 072°18'  
Track history (hours):
 
Tides and Currents Weather Stations Pressure Air Temp Water Temp Dewpoint Dewpoint Depression Visibility Wind Speed Wind Dir Waves Ship Positions

Jj Callis

Owner: Department of Homeland Security Plum Island Facility, Greenport, NY. More information available from US FCC via Universal Licensing System and Coast Guard Vessel Documentation Center.

Last reported at 2018-Jun-10 18:14 UTC. Time now 2018-Jun-19 16:26 UTC.
Position N 41°13' W 072°17'.
Warning: this ship's position is 8 days out of date.

Type: Passenger vessel. MMSI: 367107990.

Date/timePositionNaut miles runAvg speedWind from/ knotsBaromVisibWave heightAir tempDewpointWater temp
2018-Jun-10 18:14N 41°13' W 072°17'416.8
2018-Jun-10 18:00N 41°16' W 072°20'0 0.1
2018-Jun-10 17:30N 41°16' W 072°20'9 2.0
2018-Jun-10 13:20N 41°10' W 072°12'721.2
2018-Jun-10 13:00N 41°15' W 072°20'2 4.2
2018-Jun-10 12:30N 41°17' W 072°21'612.0
2018-Jun-10 12:00N 41°12' W 072°16'2 0.1
2018-Jun-09 22:08N 41°14' W 072°18'321.2
2018-Jun-09 22:00N 41°15' W 072°20'2 3.3
2018-Jun-09 21:30N 41°14' W 072°19'6 3.1
2018-Jun-09 19:30N 41°10' W 072°12'5 0.8
2018-Jun-09 13:03N 41°14' W 072°18'220.7
2018-Jun-09 12:58N 41°15' W 072°19'2 5.1
2018-Jun-09 12:30N 41°17' W 072°21'4 0.3
2018-Jun-08 23:37N 41°14' W 072°18'222.5
2018-Jun-08 23:31N 41°16' W 072°20'2 3.3
2018-Jun-08 23:00N 41°15' W 072°19'2 0.9
2018-Jun-08 21:10N 41°13' W 072°17'320.5
2018-Jun-08 21:00N 41°16' W 072°20'3 6.1
2018-Jun-08 20:30N 41°14' W 072°18'2 2.6
2018-Jun-08 19:45N 41°12' W 072°16'519.9
2018-Jun-08 19:30N 41°16' W 072°20'3 6.5
2018-Jun-08 19:00N 41°13' W 072°18'5 0.3
2018-Jun-08 03:10N 41°10' W 072°12'5 1.5
2018-Jun-07 23:35N 41°14' W 072°18'222.6
2018-Jun-07 23:29N 41°15' W 072°20'1 1.9
2018-Jun-07 23:00N 41°14' W 072°19'  
2018-Jun-03 18:03N 41°14' W 072°18'220.0
2018-Jun-03 17:57N 41°15' W 072°20'2 4.0
2018-Jun-03 17:30N 41°17' W 072°21'4 1.0
2018-Jun-03 13:03N 41°13' W 072°17'121.8
2018-Jun-03 13:00N 41°14' W 072°19'3 6.9
2018-Jun-03 12:30N 41°17' W 072°21'510.0
2018-Jun-03 12:00N 41°13' W 072°17'2 0.1
2018-Jun-02 22:07N 41°14' W 072°18'221.1
2018-Jun-02 22:00N 41°16' W 072°21'3 5.2
2018-Jun-02 21:31N 41°14' W 072°18'1 0.4
2018-Jun-02 17:50N 41°13' W 072°17'515.7
2018-Jun-02 17:30N 41°17' W 072°21'4 0.8
2018-Jun-02 13:02N 41°14' W 072°18'120.5
2018-Jun-02 13:00N 41°14' W 072°18'3 6.4
2018-Jun-02 12:30N 41°17' W 072°21'4 0.3
2018-Jun-01 23:40N 41°14' W 072°18'320.9
2018-Jun-01 23:30N 41°16' W 072°21'3 5.6
2018-Jun-01 23:01N 41°14' W 072°18'1 0.5
2018-Jun-01 21:25N 41°13' W 072°19'4 9.5
2018-Jun-01 21:00N 41°17' W 072°21'4 3.2
2018-Jun-01 19:43N 41°14' W 072°17'417.4
2018-Jun-01 19:30N 41°16' W 072°20'5 0.2
2018-May-31 23:39N 41°13' W 072°17'322.8
2018-May-31 23:31N 41°15' W 072°20'2 4.4
2018-May-31 23:00N 41°14' W 072°18'2 0.6
2018-May-31 19:27N 41°15' W 072°20'2 4.0
2018-May-31 19:00N 41°14' W 072°18'  

Dump ship's entire track history